Time;durP1;ratioP1;P1;durP2;ratioP2;P2;SDS_P1;SDS_P2;PMS_P1;PMS_P2;Temp;Humidity;BMP_temperature;BMP_pressure;BME280_temperature;BME280_humidity;BME280_pressure;Samples;Min_cycle;Max_cycle;Signal;HPM_P1;HPM_P2
2021/11/11 14:01:17;;;;;;;4.37;3.97;;;20.20;53.20;;;;;;5044464;27;20522;-81
2021/11/11 14:04:16;;;;;;;7.60;4.40;;;20.20;53.20;;;;;;5042536;28;20500;-81
2021/11/11 15:17:10;;;;;;;5.03;4.27;;;19.90;53.80;;;;;;4956132;28;20474;-84
2021/11/11 16:02:11;;;;;;;6.93;5.13;;;19.80;53.70;;;;;;5016036;28;20540;-83
2021/11/11 16:21:25;;;;;;;8.70;6.03;;;19.70;53.60;;;;;;5015380;28;20437;-82
2021/11/11 16:24:08;;;;;;;6.30;5.50;;;19.60;53.50;;;;;;5016545;28;20512;-83
2021/11/11 16:26:37;;;;;;;10.00;6.03;;;19.70;53.60;;;;;;5017635;28;20464;-83
2021/11/11 16:29:05;;;;;;;7.90;5.73;;;19.70;53.70;;;;;;5017179;28;20445;-84
2021/11/11 16:31:51;;;;;;;9.43;5.87;;;19.70;53.60;;;;;;5017093;28;20452;-83
2021/11/11 16:34:19;;;;;;;9.53;6.13;;;19.70;53.60;;;;;;5017652;28;20484;-83
2021/11/11 16:36:48;;;;;;;9.03;5.63;;;19.70;53.50;;;;;;5017036;28;20978;-83
2021/11/11 16:39:16;;;;;;;9.13;5.53;;;19.70;53.50;;;;;;5018223;28;20543;-83
2021/11/11 16:41:46;;;;;;;9.10;5.90;;;19.70;53.60;;;;;;5017927;28;20480;-83
2021/11/11 16:44:14;;;;;;;10.30;5.90;;;19.70;53.50;;;;;;5017350;28;20540;-83
2021/11/11 16:46:42;;;;;;;9.80;5.87;;;19.70;53.60;;;;;;5018102;28;20436;-83
2021/11/11 16:49:10;;;;;;;11.50;6.63;;;19.70;53.50;;;;;;5018129;28;20466;-83
2021/11/11 16:51:39;;;;;;;8.77;5.97;;;19.70;53.60;;;;;;5017689;28;20544;-83
2021/11/11 16:54:07;;;;;;;8.80;5.40;;;19.60;53.40;;;;;;5010413;28;20978;-83
2021/11/11 16:56:34;;;;;;;7.90;5.97;;;19.70;53.50;;;;;;5017495;28;20479;-83
2021/11/11 16:59:04;;;;;;;11.40;6.20;;;19.60;53.40;;;;;;5018231;28;20951;-83
2021/11/11 17:01:31;;;;;;;8.97;6.00;;;19.60;53.50;;;;;;5016864;28;20512;-83
2021/11/11 17:03:59;;;;;;;10.00;6.30;;;19.60;53.40;;;;;;5017141;28;20472;-83
2021/11/11 17:06:27;;;;;;;7.80;6.20;;;19.60;53.40;;;;;;5017542;28;20448;-84
2021/11/11 17:08:55;;;;;;;8.50;6.10;;;19.60;53.40;;;;;;5002682;28;20497;-83
2021/11/11 17:11:23;;;;;;;10.03;6.87;;;19.60;53.40;;;;;;5004957;28;20472;-85
2021/11/11 17:13:51;;;;;;;8.47;6.87;;;19.60;53.40;;;;;;5005162;28;20591;-81
2021/11/11 17:16:22;;;;;;;8.63;5.93;;;19.60;53.40;;;;;;5007988;28;20458;-81
2021/11/11 17:18:52;;;;;;;8.77;5.77;;;19.60;53.40;;;;;;5012871;28;20469;-81
2021/11/11 17:21:21;;;;;;;11.73;6.80;;;19.60;53.40;;;;;;5012850;28;20476;-80
2021/11/11 17:23:54;;;;;;;10.93;6.17;;;19.60;53.40;;;;;;5003605;28;21002;-80
2021/11/11 17:26:32;;;;;;;12.17;6.77;;;19.50;53.50;;;;;;5008769;28;20553;-80
2021/11/11 17:29:00;;;;;;;12.33;7.67;;;19.50;53.40;;;;;;5006083;28;20464;-80
2021/11/11 17:31:30;;;;;;;13.30;7.00;;;19.50;53.40;;;;;;5010793;28;20505;-81
2021/11/11 17:33:58;;;;;;;10.27;7.63;;;19.50;53.40;;;;;;5005722;28;20543;-81
2021/11/11 17:36:26;;;;;;;9.97;6.40;;;19.50;53.40;;;;;;5005552;28;20444;-83
2021/11/11 17:38:54;;;;;;;9.83;6.80;;;19.50;53.20;;;;;;5008717;28;20441;-81
2021/11/11 17:41:22;;;;;;;10.83;7.20;;;19.50;53.40;;;;;;5012039;28;20441;-80
2021/11/11 17:44:00;;;;;;;13.13;7.87;;;19.50;53.50;;;;;;5010544;28;20472;-81
2021/11/11 17:46:31;;;;;;;15.57;7.97;;;19.50;53.40;;;;;;5011164;28;20539;-82
2021/11/11 17:49:00;;;;;;;13.83;8.27;;;19.50;53.40;;;;;;5005085;28;20522;-80
2021/11/11 17:51:38;;;;;;;14.20;7.53;;;19.50;53.40;;;;;;5012991;28;20521;-79
2021/11/11 17:54:11;;;;;;;14.17;7.90;;;19.50;53.30;;;;;;5005869;28;20572;-84
2021/11/11 17:56:42;;;;;;;10.63;7.30;;;19.50;53.40;;;;;;5013505;28;20897;-81
2021/11/11 17:59:10;;;;;;;12.33;7.83;;;19.50;53.50;;;;;;5008148;28;20475;-81
2021/11/11 18:01:39;;;;;;;13.37;7.97;;;19.50;53.50;;;;;;5007458;28;20495;-81
2021/11/11 18:04:07;;;;;;;13.57;8.27;;;19.50;53.30;;;;;;5015935;28;20506;-82
2021/11/11 18:06:36;;;;;;;14.10;8.10;;;19.50;53.40;;;;;;5005341;28;20536;-80
2021/11/11 18:09:10;;;;;;;13.37;8.40;;;19.50;53.40;;;;;;5006790;28;20467;-80
2021/11/11 18:11:41;;;;;;;12.63;8.20;;;19.50;53.30;;;;;;5009780;28;21062;-79
2021/11/11 18:14:16;;;;;;;12.67;8.07;;;19.50;53.40;;;;;;5004556;28;20463;-80
2021/11/11 18:16:48;;;;;;;14.60;8.37;;;19.50;53.40;;;;;;5011819;28;20505;-81
2021/11/11 18:19:16;;;;;;;13.93;8.90;;;19.50;53.30;;;;;;5008710;28;20515;-80
2021/11/11 18:21:45;;;;;;;15.27;8.73;;;19.50;53.40;;;;;;5014550;28;20468;-80
2021/11/11 18:24:13;;;;;;;14.80;8.70;;;19.50;53.40;;;;;;5005154;28;20559;-81
2021/11/11 18:26:41;;;;;;;13.37;8.37;;;19.50;53.40;;;;;;5006348;28;20563;-80
2021/11/11 18:29:23;;;;;;;15.20;8.33;;;19.50;53.30;;;;;;5012515;28;20479;-80
2021/11/11 18:32:04;;;;;;;13.60;8.03;;;19.40;53.30;;;;;;5008276;28;20531;-80
2021/11/11 18:34:35;;;;;;;14.70;7.30;;;19.40;53.80;;;;;;5008835;28;20483;-81
2021/11/11 18:37:06;;;;;;;17.47;8.77;;;19.40;53.30;;;;;;5010816;28;20478;-80
2021/11/11 18:39:34;;;;;;;13.33;8.30;;;19.40;53.30;;;;;;5007417;28;20462;-80
2021/11/11 18:42:03;;;;;;;15.27;8.83;;;19.40;53.20;;;;;;5008997;28;20467;-80
2021/11/11 18:44:33;;;;;;;14.43;8.83;;;19.40;53.30;;;;;;5000620;28;20483;-77
2021/11/11 18:47:08;;;;;;;17.23;9.50;;;19.40;53.30;;;;;;5004313;28;20510;-79
2021/11/11 18:49:36;;;;;;;13.40;8.77;;;19.40;53.30;;;;;;5000960;28;20495;-79
2021/11/11 18:52:04;;;;;;;15.00;8.40;;;19.40;53.40;;;;;;4999678;28;20448;-79
2021/11/11 18:54:32;;;;;;;14.67;8.60;;;19.40;53.40;;;;;;5005268;28;20487;-79
2021/11/11 18:57:00;;;;;;;14.90;9.97;;;19.40;53.40;;;;;;5002479;28;20490;-79
2021/11/11 18:59:29;;;;;;;15.97;10.33;;;19.40;53.50;;;;;;5007130;28;20555;-79
2021/11/11 19:01:57;;;;;;;16.80;10.67;;;19.40;53.40;;;;;;5007669;28;20520;-78
2021/11/11 19:04:27;;;;;;;20.47;10.67;;;19.40;53.40;;;;;;5005498;28;20480;-81
2021/11/11 19:06:57;;;;;;;17.87;11.37;;;19.40;53.40;;;;;;5008024;28;20572;-82
2021/11/11 19:09:26;;;;;;;19.57;11.80;;;19.40;53.40;;;;;;5007570;28;21156;-82
2021/11/11 19:11:56;;;;;;;20.00;12.27;;;19.30;53.40;;;;;;5008608;28;20444;-82
2021/11/11 19:14:26;;;;;;;20.00;11.43;;;19.30;53.40;;;;;;5011867;28;20460;-82
2021/11/11 19:16:56;;;;;;;22.80;11.70;;;19.30;53.50;;;;;;5021387;28;20457;-79
2021/11/11 19:19:27;;;;;;;23.00;11.60;;;19.30;53.50;;;;;;5014136;28;20463;-80
2021/11/11 19:21:58;;;;;;;20.23;11.50;;;19.30;53.60;;;;;;5022136;28;20524;-80
2021/11/11 19:24:26;;;;;;;23.60;12.07;;;19.30;53.60;;;;;;5006783;28;20646;-80
2021/11/11 19:26:54;;;;;;;22.90;11.63;;;19.30;53.60;;;;;;5014029;28;20926;-79
2021/11/11 19:29:22;;;;;;;21.27;11.30;;;19.30;53.60;;;;;;5014916;28;20845;-79
2021/11/11 19:31:54;;;;;;;19.87;11.13;;;19.30;53.70;;;;;;5016125;28;20469;-80
2021/11/11 19:34:24;;;;;;;20.37;11.27;;;19.30;53.70;;;;;;5015975;28;20551;-80
2021/11/11 19:37:27;;;;;;;19.50;10.47;;;19.30;53.80;;;;;;5016022;28;20531;-79
2021/11/11 19:42:51;;;;;;;16.10;9.27;;;19.30;53.90;;;;;;5015747;28;20471;-79
2021/11/11 19:45:35;;;;;;;21.80;10.40;;;19.30;54.00;;;;;;5016205;28;20500;-80
2021/11/11 19:48:12;;;;;;;21.00;9.83;;;19.30;54.10;;;;;;5015920;28;20523;-80
2021/11/11 19:50:52;;;;;;;23.20;10.13;;;19.30;54.10;;;;;;5016077;28;20523;-79
2021/11/11 20:04:46;;;;;;;16.20;9.00;;;19.20;54.30;;;;;;5016486;28;20832;-80
2021/11/11 20:10:18;;;;;;;17.03;9.37;;;19.20;54.30;;;;;;5016721;28;20432;-79
2021/11/11 20:31:59;;;;;;;12.90;8.33;;;19.20;54.60;;;;;;5171427;27;20527;-78
2021/11/11 20:34:41;;;;;;;20.13;9.13;;;19.20;54.80;;;;;;5171011;27;20473;-78
2021/11/11 20:37:37;;;;;;;15.23;8.33;;;19.20;54.90;;;;;;5171836;27;20445;-78
2021/11/11 21:01:46;;;;;;;18.50;7.90;;;19.10;54.80;;;;;;5109541;27;20505;-79
2021/11/11 21:04:16;;;;;;;13.70;8.73;;;19.20;54.80;;;;;;5111724;28;20435;-79
2021/11/11 21:06:54;;;;;;;16.27;8.80;;;19.20;54.80;;;;;;5109783;28;20452;-79
2021/11/11 21:09:34;;;;;;;14.50;9.40;;;19.20;55.40;;;;;;5109324;28;20570;-79
2021/11/11 21:12:30;;;;;;;14.23;8.70;;;19.10;54.80;;;;;;5109431;28;20428;-79
2021/11/11 21:15:04;;;;;;;16.50;10.03;;;19.10;54.80;;;;;;5109539;28;20428;-79
2021/11/11 21:17:41;;;;;;;17.47;10.00;;;19.10;54.80;;;;;;5109333;28;20519;-80
2021/11/11 21:20:11;;;;;;;16.13;8.67;;;19.10;54.80;;;;;;5109408;28;20467;-79
2021/11/11 21:22:40;;;;;;;19.70;9.70;;;19.10;54.80;;;;;;5109111;28;20456;-79
2021/11/11 21:25:09;;;;;;;16.20;8.90;;;19.10;54.80;;;;;;5109078;28;20436;-79
2021/11/11 21:27:40;;;;;;;15.43;9.30;;;19.10;54.80;;;;;;5109183;28;20515;-78
2021/11/11 21:30:09;;;;;;;16.93;9.30;;;19.10;54.80;;;;;;5109284;28;20491;-79
2021/11/11 21:32:39;;;;;;;13.57;9.07;;;19.10;54.80;;;;;;5108849;28;20436;-79
2021/11/11 21:35:20;;;;;;;19.27;9.80;;;19.10;54.80;;;;;;5108921;28;20531;-79
2021/11/11 21:37:52;;;;;;;17.40;10.27;;;19.10;54.80;;;;;;5109041;28;20424;-79
2021/11/11 21:40:22;;;;;;;23.40;11.23;;;19.10;54.80;;;;;;5108888;28;20565;-79
2021/11/11 21:42:54;;;;;;;16.13;9.33;;;19.10;54.90;;;;;;5108720;28;20505;-79
2021/11/11 21:45:21;;;;;;;13.83;9.40;;;19.10;54.80;;;;;;5108673;28;20534;-78
2021/11/11 21:47:51;;;;;;;18.63;9.70;;;19.10;54.90;;;;;;5098754;28;20524;-79
2021/11/11 21:50:19;;;;;;;16.23;9.83;;;19.10;54.90;;;;;;5088050;28;20983;-79
2021/11/11 21:52:50;;;;;;;20.07;11.10;;;19.10;54.80;;;;;;5088305;28;20452;-79
2021/11/11 21:55:22;;;;;;;15.50;9.33;;;19.10;54.80;;;;;;5088339;28;20483;-79
2021/11/11 21:58:04;;;;;;;14.30;9.20;;;19.10;54.90;;;;;;5088167;28;20508;-79
2021/11/11 22:00:38;;;;;;;17.13;9.70;;;19.10;54.80;;;;;;5086365;28;20455;-78
2021/11/11 22:03:14;;;;;;;19.80;10.20;;;19.10;54.90;;;;;;5074585;28;20449;-79
2021/11/11 22:06:10;;;;;;;14.80;10.03;;;19.10;54.80;;;;;;5074565;28;20528;-79
2021/11/11 22:20:08;;;;;;;17.77;9.80;;;19.00;55.00;;;;;;5074325;28;20473;-79
2021/11/11 22:22:50;;;;;;;16.50;9.30;;;19.00;55.10;;;;;;5074267;28;20541;-79
2021/11/11 22:25:20;;;;;;;17.60;9.77;;;19.00;55.10;;;;;;5074076;28;20528;-79
2021/11/11 22:33:18;;;;;;;16.77;8.97;;;19.10;55.20;;;;;;5074054;28;20450;-79
2021/11/11 22:35:47;;;;;;;17.57;9.80;;;19.10;55.20;;;;;;5073926;28;20453;-80
2021/11/11 22:38:16;;;;;;;17.60;10.80;;;19.10;55.20;;;;;;5073903;28;20441;-79
2021/11/11 22:40:45;;;;;;;17.23;9.53;;;19.00;55.10;;;;;;5073814;28;21003;-79
2021/11/11 22:43:13;;;;;;;13.70;9.17;;;19.10;55.20;;;;;;5073727;28;21000;-79
2021/11/11 22:45:41;;;;;;;15.87;10.00;;;19.10;55.00;;;;;;5073635;28;20436;-79
2021/11/11 22:48:09;;;;;;;19.13;10.10;;;19.00;55.00;;;;;;5073568;28;20452;-79
2021/11/11 22:50:38;;;;;;;15.90;10.03;;;19.00;55.10;;;;;;5073774;28;20903;-79
2021/11/11 22:53:20;;;;;;;15.60;9.30;;;19.00;55.10;;;;;;5073689;28;20493;-79
2021/11/11 22:55:51;;;;;;;16.90;9.70;;;19.00;55.20;;;;;;5073468;28;21008;-79
2021/11/11 22:58:30;;;;;;;16.37;9.63;;;19.00;55.10;;;;;;5073817;28;20528;-79
2021/11/11 23:01:01;;;;;;;17.17;9.80;;;19.00;55.10;;;;;;5081081;28;20454;-79
2021/11/11 23:03:39;;;;;;;14.50;9.33;;;19.00;55.20;;;;;;5093950;28;20464;-79
2021/11/11 23:06:37;;;;;;;15.80;9.77;;;19.00;55.10;;;;;;5093542;28;20523;-79
2021/11/11 23:09:17;;;;;;;17.73;10.27;;;19.00;55.20;;;;;;5093590;28;20523;-79
2021/11/11 23:12:03;;;;;;;15.70;9.60;;;19.00;55.30;;;;;;5093220;28;20818;-79
2021/11/11 23:14:33;;;;;;;19.03;10.33;;;19.00;55.40;;;;;;5092635;28;20515;-79
2021/11/11 23:17:16;;;;;;;15.83;9.63;;;19.00;55.10;;;;;;5093303;28;20523;-79
2021/11/11 23:19:53;;;;;;;18.30;9.30;;;19.00;55.20;;;;;;5093647;28;20429;-79
2021/11/11 23:22:42;;;;;;;15.53;9.83;;;19.00;55.10;;;;;;5093333;28;20532;-79
2021/11/11 23:33:30;;;;;;;15.00;8.80;;;19.00;55.30;;;;;;5074289;28;20488;-78
2021/11/11 23:35:58;;;;;;;16.63;10.13;;;19.00;55.30;;;;;;5083258;28;20429;-78
2021/11/11 23:38:27;;;;;;;17.37;9.77;;;19.00;55.40;;;;;;5081334;28;20516;-79
2021/11/11 23:40:57;;;;;;;14.30;9.60;;;19.00;55.40;;;;;;5081590;28;20499;-78
2021/11/11 23:43:25;;;;;;;16.40;9.50;;;19.00;55.40;;;;;;5084373;28;20452;-79
2021/11/11 23:46:05;;;;;;;11.03;8.30;;;19.00;55.40;;;;;;5084648;28;20441;-78
2021/11/11 23:48:33;;;;;;;14.73;9.33;;;19.00;55.40;;;;;;5078474;28;20430;-78
2021/11/11 23:51:13;;;;;;;14.30;9.57;;;19.00;55.30;;;;;;5099134;28;20492;-81
